Time;durP1;ratioP1;P1;durP2;ratioP2;P2;SDS_P1;SDS_P2;PMS_P1;PMS_P2;Temp;Humidity;BMP_temperature;BMP_pressure;BME280_temperature;BME280_humidity;BME280_pressure;Samples;Min_cycle;Max_cycle;Signal;HPM_P1;HPM_P2
2022/11/06 00:01:12;;;;;;;75.80;39.73;;;;;;;7.54;89.29;97458.19;1724719;83;20980;-68
2022/11/06 00:03:39;;;;;;;;;;;;;;;7.49;88.85;97460.08;1678451;85;20988;-68
2022/11/06 00:09:01;;;;;;;83.97;43.17;;;;;;;7.39;88.99;97450.20;1724174;83;21008;-68
2022/11/06 00:11:29;;;;;;;77.08;42.78;;;;;;;7.36;89.55;97462.17;1724946;82;21572;-68
2022/11/06 00:13:56;;;;;;;73.65;42.13;;;;;;;7.31;88.79;97464.05;1705528;84;20980;-68
2022/11/06 00:16:23;;;;;;;75.28;40.40;;;;;;;7.26;88.93;97466.78;1749969;82;20935;-68
2022/11/06 00:18:50;;;;;;;79.42;43.58;;;;;;;7.22;88.80;97459.41;1724589;83;20989;-68
2022/11/06 00:21:27;;;;;;;78.72;42.45;;;;;;;7.16;88.93;97463.53;1705596;84;21035;-68
2022/11/06 00:23:56;;;;;;;85.67;44.15;;;;;;;7.15;89.18;97455.66;1724827;83;21480;-67
2022/11/06 00:26:25;;;;;;;70.50;40.83;;;;;;;7.16;89.53;97462.65;1725425;83;20993;-68
2022/11/06 00:28:52;;;;;;;75.87;41.15;;;;;;;7.13;89.72;97463.16;1726283;82;20992;-68
2022/11/06 00:31:26;;;;;;;78.62;41.28;;;;;;;7.14;89.64;97462.68;1726493;83;21274;-68
2022/11/06 00:33:56;;;;;;;69.87;40.23;;;;;;;7.14;89.68;97464.00;1738202;82;21025;-68
2022/11/06 00:36:24;;;;;;;79.62;43.73;;;;;;;7.12;89.63;97463.19;1765167;81;21002;-68
2022/11/06 00:38:53;;;;;;;74.40;41.65;;;;;;;7.12;89.55;97467.13;1765243;81;21003;-67
2022/11/06 00:41:21;;;;;;;76.12;42.30;;;;;;;7.10;89.64;97461.90;1765208;81;20916;-68
2022/11/06 00:43:51;;;;;;;76.92;42.10;;;;;;;7.10;89.44;97468.95;1765067;81;21439;-68
2022/11/06 00:46:19;;;;;;;82.62;43.15;;;;;;;7.10;89.35;97469.80;1765243;81;21005;-69
2022/11/06 00:48:46;;;;;;;77.90;41.65;;;;;;;7.09;89.57;97472.47;1765281;81;20943;-68
2022/11/06 00:51:17;;;;;;;75.32;41.90;;;;;;;7.08;90.09;97471.63;1765342;81;20967;-67
2022/11/06 00:53:45;;;;;;;79.45;40.95;;;;;;;7.07;89.48;97469.02;1756726;81;20946;-68
2022/11/06 00:56:18;;;;;;;69.60;39.48;;;;;;;7.05;89.77;97466.41;1765125;81;21353;-67
2022/11/06 00:58:46;;;;;;;67.82;37.60;;;;;;;7.06;89.54;97477.36;1764583;81;20947;-68
2022/11/06 01:01:26;;;;;;;80.55;40.35;;;;;;;7.07;89.54;97469.02;1765255;81;21022;-67
2022/11/06 01:04:00;;;;;;;68.60;37.10;;;;;;;7.07;89.67;97469.02;1744046;81;20998;-68
2022/11/06 01:06:31;;;;;;;69.17;38.28;;;;;;;7.07;89.91;97467.70;1765435;81;20962;-67
2022/11/06 01:08:59;;;;;;;59.45;36.17;;;;;;;7.04;89.37;97478.30;1744070;81;20991;-67
2022/11/06 01:11:33;;;;;;;70.32;37.73;;;;;;;7.02;89.65;97473.06;1765074;81;20931;-67
2022/11/06 01:14:02;;;;;;;66.97;37.80;;;;;;;7.00;89.54;97473.13;1765359;81;21013;-67
2022/11/06 01:16:30;;;;;;;74.70;37.75;;;;;;;6.96;89.49;97471.45;1765353;81;20987;-68
2022/11/06 01:18:58;;;;;;;64.40;37.25;;;;;;;6.92;89.72;97471.55;1764995;81;21412;-68
2022/11/06 01:21:29;;;;;;;70.37;38.02;;;;;;;6.90;89.52;97473.36;1765345;81;21002;-68
2022/11/06 01:24:00;;;;;;;69.55;37.63;;;;;;;6.86;89.62;97477.84;1765110;81;21404;-67
2022/11/06 01:26:29;;;;;;;69.42;36.10;;;;;;;6.82;89.53;97475.70;1759128;81;21035;-68
2022/11/06 01:28:56;;;;;;;64.07;37.78;;;;;;;6.79;89.36;97469.22;1742207;82;20924;-67
2022/11/06 01:31:27;;;;;;;72.55;36.80;;;;;;;6.78;89.20;97478.46;1742267;82;20956;-67
2022/11/06 01:33:55;;;;;;;63.48;35.88;;;;;;;6.73;89.21;97468.89;1742398;82;20992;-68
2022/11/06 01:36:22;;;;;;;63.52;35.40;;;;;;;6.72;89.29;97470.23;1742193;82;20948;-68
2022/11/06 01:38:52;;;;;;;57.95;33.73;;;;;;;6.74;89.78;97471.09;1742134;82;21003;-67
2022/11/06 01:41:25;;;;;;;69.32;34.67;;;;;;;6.78;90.01;97472.75;1742169;82;20960;-68
2022/11/06 01:43:57;;;;;;;64.77;36.55;;;;;;;6.83;89.97;97473.95;1702223;84;20997;-68
2022/11/06 01:46:29;;;;;;;62.60;33.60;;;;;;;6.85;90.07;97470.85;1688264;85;21021;-68
2022/11/06 01:49:13;;;;;;;62.48;33.42;;;;;;;6.80;89.80;97477.97;1688403;85;20993;-68
2022/11/06 01:51:47;;;;;;;66.80;33.23;;;;;;;6.82;89.94;97479.66;1688242;85;21017;-67
2022/11/06 01:54:15;;;;;;;61.33;32.73;;;;;;;6.84;90.24;97477.00;1688508;85;20986;-67
2022/11/06 01:56:44;;;;;;;63.30;31.60;;;;;;;6.84;90.09;97483.58;1686318;84;21013;-68
2022/11/06 01:59:15;;;;;;;61.90;31.65;;;;;;;6.82;90.26;97490.20;1681317;85;20989;-68
2022/11/06 02:01:42;;;;;;;57.43;32.93;;;;;;;6.86;90.21;97493.66;1688216;85;21092;-67
2022/11/06 02:04:29;;;;;;;64.77;34.20;;;;;;;6.83;90.51;97491.95;1688418;85;21308;-67
2022/11/06 02:06:57;;;;;;;63.55;34.50;;;;;;;6.81;90.67;97496.38;1688263;85;21013;-68
2022/11/06 02:09:25;;;;;;;61.65;33.10;;;;;;;6.79;90.75;97501.26;1688494;85;21029;-68
2022/11/06 02:12:03;;;;;;;62.58;32.88;;;;;;;6.76;90.59;97497.39;1688371;85;21036;-68
2022/11/06 02:15:01;;;;;;;58.10;32.28;;;;;;;6.74;90.66;97511.44;1688258;84;21005;-68
2022/11/06 02:17:58;;;;;;;70.37;33.83;;;;;;;6.72;90.33;97508.42;1688260;85;21013;-67
2022/11/06 02:21:02;;;;;;;61.05;33.25;;;;;;;6.64;90.19;97500.70;1671465;85;21463;-67
2022/11/06 02:24:04;;;;;;;63.20;33.02;;;;;;;6.60;90.63;97510.44;1688408;85;21108;-67
2022/11/06 02:26:51;;;;;;;62.85;34.35;;;;;;;6.61;90.72;97521.84;1690205;83;21552;-67
2022/11/06 02:29:23;;;;;;;56.53;31.57;;;;;;;6.56;90.32;97515.81;1765275;81;21010;-67
2022/11/06 02:31:53;;;;;;;59.63;34.03;;;;;;;6.45;89.79;97509.45;1765449;81;20939;-68
2022/11/06 02:34:23;;;;;;;58.25;31.75;;;;;;;6.37;89.82;97517.50;1765307;81;21432;-68
2022/11/06 02:36:58;;;;;;;58.50;33.88;;;;;;;6.27;89.45;97523.38;1765465;81;21018;-67
2022/11/06 02:39:28;;;;;;;58.60;32.13;;;;;;;6.19;89.75;97518.28;1764337;81;20934;-67
2022/11/06 02:41:58;;;;;;;59.95;32.78;;;;;;;6.15;89.66;97518.38;1765263;81;20986;-67
2022/11/06 02:44:28;;;;;;;62.90;33.18;;;;;;;6.10;89.70;97528.98;1765390;81;20991;-67
2022/11/06 02:47:07;;;;;;;58.83;32.38;;;;;;;6.06;89.72;97533.88;1765471;81;20947;-68
2022/11/06 02:50:01;;;;;;;67.00;34.70;;;;;;;6.00;89.45;97537.91;1765084;81;20970;-68
2022/11/06 02:52:51;;;;;;;61.15;33.75;;;;;;;5.93;89.72;97535.40;1696966;84;20960;-67
2022/11/06 02:55:39;;;;;;;62.23;33.63;;;;;;;5.85;89.96;97539.07;1753296;81;21053;-67
2022/11/06 02:58:14;;;;;;;59.27;33.90;;;;;;;5.81;89.92;97544.38;1765338;81;20951;-67
2022/11/06 03:00:44;;;;;;;57.62;33.00;;;;;;;5.75;89.80;97542.30;1764067;80;21448;-68
2022/11/06 03:03:16;;;;;;;60.25;33.85;;;;;;;5.71;89.87;97541.92;1765212;81;20963;-68
2022/11/06 03:05:57;;;;;;;55.30;32.80;;;;;;;5.68;89.79;97550.73;1764860;80;20955;-68
2022/11/06 03:08:44;;;;;;;56.77;32.13;;;;;;;5.62;89.64;97549.09;1765320;81;20967;-68
2022/11/06 03:11:23;;;;;;;64.45;31.70;;;;;;;5.59;90.13;97552.20;1765247;81;20943;-68
2022/11/06 03:14:04;;;;;;;54.80;30.52;;;;;;;5.57;90.00;97553.56;1765357;81;21029;-67
2022/11/06 03:17:02;;;;;;;57.25;32.38;;;;;;;5.54;89.92;97554.48;1744688;80;21396;-67
2022/11/06 03:19:58;;;;;;;55.85;30.52;;;;;;;5.50;89.89;97557.17;1764909;81;21010;-67
2022/11/06 03:23:14;;;;;;;54.73;32.17;;;;;;;5.46;90.12;97560.30;1696639;84;21402;-67
2022/11/06 03:25:46;;;;;;;60.50;33.00;;;;;;;5.45;90.09;97557.26;1765444;81;21381;-68
2022/11/06 03:28:33;;;;;;;63.52;33.92;;;;;;;5.41;90.09;97551.62;1763983;81;20943;-68
2022/11/06 03:31:05;;;;;;;66.92;33.33;;;;;;;5.38;90.12;97553.86;1765255;81;20963;-68
2022/11/06 03:33:40;;;;;;;58.10;32.00;;;;;;;5.36;90.41;97562.19;1764318;81;21384;-68
2022/11/06 03:36:36;;;;;;;55.55;31.25;;;;;;;5.35;90.30;97563.09;1765401;81;20935;-68
2022/11/06 03:39:07;;;;;;;55.85;30.30;;;;;;;5.36;90.46;97559.56;1743414;81;21385;-67
2022/11/06 03:41:44;;;;;;;53.95;30.30;;;;;;;5.32;91.37;97551.77;1765330;80;20970;-68
2022/11/06 03:44:15;;;;;;;58.75;30.72;;;;;;;5.31;91.11;97557.45;1765206;81;21018;-67
2022/11/06 03:46:47;;;;;;;52.30;29.52;;;;;;;5.31;91.10;97555.30;1765329;81;20955;-67
2022/11/06 03:49:19;;;;;;;55.58;29.72;;;;;;;5.31;90.90;97565.34;1765399;81;20946;-68
2022/11/06 03:51:56;;;;;;;58.00;30.32;;;;;;;5.31;91.21;97554.83;1765173;81;22107;-69
2022/11/06 03:54:26;;;;;;;60.08;29.40;;;;;;;5.28;90.88;97559.69;1765307;81;21015;-68
2022/11/06 03:57:10;;;;;;;53.68;28.42;;;;;;;5.25;91.03;97566.75;1765191;80;21050;-69
2022/11/06 03:59:45;;;;;;;52.65;30.00;;;;;;;5.27;91.10;97575.47;1764124;81;20983;-69
2022/11/06 04:02:15;;;;;;;55.48;29.55;;;;;;;5.29;91.13;97571.92;1765318;81;20997;-68
2022/11/06 04:04:46;;;;;;;53.20;31.37;;;;;;;5.34;90.93;97582.81;1765119;81;21046;-68
2022/11/06 04:07:21;;;;;;;65.50;36.33;;;;;;;5.37;90.84;97581.47;1764636;81;21432;-68
2022/11/06 04:15:36;;;;;;;71.60;40.55;;;;;;;5.47;91.14;97576.92;1765287;81;21408;-67
2022/11/06 04:18:03;;;;;;;61.88;33.30;;;;;;;5.46;91.32;97580.45;1764404;80;20963;-67
2022/11/06 04:23:40;;;;;;;63.00;35.85;;;;;;;5.49;91.36;97579.95;1755121;81;20923;-68
2022/11/06 04:26:36;;;;;;;58.73;32.93;;;;;;;5.55;91.61;97586.88;1765240;81;21059;-67
2022/11/06 04:29:16;;;;;;;53.65;30.62;;;;;;;5.58;91.57;97586.84;1765210;80;21003;-68
2022/11/06 04:31:49;;;;;;;51.68;29.92;;;;;;;5.61;91.39;97588.55;1765336;81;20963;-67
2022/11/06 04:34:46;;;;;;;50.98;29.07;;;;;;;5.61;91.20;97592.03;1765068;81;20987;-67
2022/11/06 04:37:23;;;;;;;47.58;26.07;;;;;;;5.59;91.24;97582.00;1744491;81;20967;-67
2022/11/06 04:40:02;;;;;;;49.90;26.40;;;;;;;;;;1695966;81;20967;-67
2022/11/06 04:42:49;;;;;;;46.40;26.25;;;;;;;5.53;90.96;97589.52;1765203;80;20931;-68
2022/11/06 04:45:21;;;;;;;48.55;27.82;;;;;;;5.51;91.11;97590.01;1765474;80;20971;-67
2022/11/06 04:47:50;;;;;;;51.90;28.45;;;;;;;5.48;90.98;97596.61;1765025;81;20999;-68
2022/11/06 04:50:19;;;;;;;48.85;28.73;;;;;;;5.43;90.87;97594.97;1765271;81;21049;-68
2022/11/06 04:52:47;;;;;;;50.00;28.95;;;;;;;5.37;90.99;97595.92;1765374;81;20955;-68
2022/11/06 04:55:13;;;;;;;55.33;30.60;;;;;;;5.36;91.31;97595.50;1737600;81;20936;-67
2022/11/06 04:57:40;;;;;;;47.38;30.82;;;;;;;5.35;91.24;97595.09;1765469;81;20951;-67
2022/11/06 05:00:11;;;;;;;61.50;32.83;;;;;;;5.34;91.25;97591.58;1765424;81;20982;-67
2022/11/06 05:02:37;;;;;;;54.18;32.40;;;;;;;5.33;91.15;97601.67;1765449;81;20943;-69
2022/11/06 05:05:05;;;;;;;53.78;32.20;;;;;;;5.28;90.62;97599.56;1765281;81;21335;-68
2022/11/06 05:07:32;;;;;;;55.50;30.68;;;;;;;5.21;90.45;97599.21;1765448;81;21003;-69
2022/11/06 05:09:58;;;;;;;54.48;31.62;;;;;;;5.15;90.71;97598.88;1765401;81;20924;-68
2022/11/06 05:12:25;;;;;;;55.90;32.17;;;;;;;5.12;90.67;97600.22;1765386;81;20932;-68
2022/11/06 05:14:51;;;;;;;57.05;31.07;;;;;;;5.10;90.62;97605.48;1765507;81;21396;-68
2022/11/06 05:17:18;;;;;;;48.85;27.75;;;;;;;5.06;90.70;97609.51;1765244;81;20958;-68
2022/11/06 05:19:44;;;;;;;46.80;27.20;;;;;;;5.01;90.85;97617.00;1765470;80;20919;-68
2022/11/06 05:24:55;;;;;;;53.13;29.35;;;;;;;4.91;90.43;97625.01;1765357;81;20920;-67
2022/11/06 05:27:22;;;;;;;51.53;30.82;;;;;;;4.87;90.73;97620.25;1760441;80;21011;-68
2022/11/06 05:29:49;;;;;;;55.40;31.45;;;;;;;4.85;90.60;97624.20;1742422;82;20964;-68
2022/11/06 05:32:15;;;;;;;48.48;26.27;;;;;;;4.84;90.59;97621.59;1741931;82;20928;-68
2022/11/06 05:34:42;;;;;;;53.40;30.08;;;;;;;4.82;91.31;97628.16;1742126;82;20984;-67
2022/11/06 05:37:08;;;;;;;55.83;26.35;;;;;;;4.82;90.92;97629.48;1742185;82;20901;-68
2022/11/06 05:39:34;;;;;;;41.90;22.70;;;;;;;4.81;91.20;97633.00;1742233;82;20961;-67
2022/11/06 05:42:01;;;;;;;44.67;22.82;;;;;;;4.82;91.23;97642.61;1742181;82;21020;-68
2022/11/06 05:44:28;;;;;;;42.65;23.50;;;;;;;4.78;91.40;97642.25;1742001;82;20933;-68
2022/11/06 05:46:54;;;;;;;42.17;23.55;;;;;;;4.77;91.26;97641.80;1742278;82;20940;-68
2022/11/06 05:49:20;;;;;;;40.73;23.50;;;;;;;4.76;91.30;97641.38;1742141;82;20964;-68
2022/11/06 05:51:47;;;;;;;43.00;24.30;;;;;;;4.77;91.44;97647.05;1742036;81;21046;-67
2022/11/06 05:54:14;;;;;;;42.80;23.07;;;;;;;4.81;91.53;97662.34;1741851;81;20925;-67
2022/11/06 05:56:40;;;;;;;46.28;25.17;;;;;;;4.84;91.61;97664.48;1742073;82;20952;-68
2022/11/06 05:59:07;;;;;;;47.33;25.20;;;;;;;4.88;91.22;97663.56;1742104;82;20991;-67
2022/11/06 06:01:34;;;;;;;42.78;25.82;;;;;;;4.89;91.25;97667.03;1742116;82;20987;-68
2022/11/06 06:04:00;;;;;;;46.48;25.77;;;;;;;4.93;91.30;97666.12;1741885;82;21015;-68
2022/11/06 06:06:27;;;;;;;48.87;26.97;;;;;;;4.94;91.33;97665.22;1742113;82;21509;-68
2022/11/06 06:08:53;;;;;;;45.78;25.97;;;;;;;5.00;91.40;97664.29;1742049;82;20948;-68
2022/11/06 06:11:20;;;;;;;42.10;24.00;;;;;;;5.02;91.22;97664.69;1742251;82;20996;-68
2022/11/06 06:13:47;;;;;;;39.83;23.15;;;;;;;5.05;91.43;97657.22;1742136;82;21410;-68
2022/11/06 06:16:13;;;;;;;46.05;24.30;;;;;;;5.10;91.43;97666.34;1742189;82;20932;-66
2022/11/06 06:18:40;;;;;;;37.53;21.60;;;;;;;5.16;91.59;97663.66;1742140;82;20979;-66
2022/11/06 06:21:06;;;;;;;43.60;22.62;;;;;;;5.21;91.58;97664.89;1742176;82;20956;-67
2022/11/06 06:23:33;;;;;;;38.90;20.72;;;;;;;5.25;91.63;97667.48;1742198;82;20972;-67
2022/11/06 06:25:59;;;;;;;37.10;20.30;;;;;;;5.29;91.50;97670.92;1741895;82;20929;-67
2022/11/06 06:28:25;;;;;;;36.65;20.00;;;;;;;5.32;91.36;97676.15;1742198;80;20956;-68
2022/11/06 06:30:52;;;;;;;37.03;20.17;;;;;;;5.36;91.53;97668.63;1742312;82;21027;-67
2022/11/06 06:33:18;;;;;;;39.30;19.75;;;;;;;5.40;91.47;97675.58;1742134;82;20917;-68
2022/11/06 06:35:45;;;;;;;39.33;19.75;;;;;;;5.45;91.42;97675.96;1742203;82;21000;-68
2022/11/06 06:38:11;;;;;;;35.40;19.85;;;;;;;5.52;91.27;97681.11;1742221;82;20948;-68
2022/11/06 06:40:38;;;;;;;34.50;18.52;;;;;;;5.59;91.08;97681.89;1741796;82;20972;-68
2022/11/06 06:43:05;;;;;;;31.00;17.80;;;;;;;5.65;91.17;97683.11;1742542;82;20889;-67
2022/11/06 06:45:32;;;;;;;32.33;18.02;;;;;;;5.72;91.24;97686.98;1742538;82;20984;-67
2022/11/06 06:48:04;;;;;;;30.82;17.07;;;;;;;5.81;91.54;97682.88;1741931;81;21438;-68
2022/11/06 06:50:31;;;;;;;32.60;18.05;;;;;;;5.95;91.38;97699.31;1722131;82;21002;-67
2022/11/06 06:52:58;;;;;;;32.78;17.57;;;;;;;6.04;91.48;97710.62;1742272;82;20968;-68
2022/11/06 06:55:25;;;;;;;35.92;16.77;;;;;;;6.12;91.21;97711.38;1742061;82;20944;-68
2022/11/06 06:57:57;;;;;;;29.12;16.45;;;;;;;6.24;91.34;97701.09;1742064;82;21038;-68
2022/11/06 07:00:25;;;;;;;32.20;17.00;;;;;;;6.35;91.36;97700.89;1742186;82;20941;-67
2022/11/06 07:02:52;;;;;;;34.38;16.97;;;;;;;6.49;91.33;97708.56;1742003;82;20967;-67
2022/11/06 07:05:19;;;;;;;33.18;17.25;;;;;;;6.58;91.07;97695.67;1742187;82;21394;-68
2022/11/06 07:07:47;;;;;;;28.25;17.73;;;;;;;6.71;91.32;97705.53;1741587;82;22195;-67
2022/11/06 07:10:14;;;;;;;30.77;17.32;;;;;;;6.84;91.27;97699.14;1742276;82;20983;-66
2022/11/06 07:12:40;;;;;;;28.15;17.50;;;;;;;6.94;91.01;97695.86;1742185;81;21508;-67
2022/11/06 07:15:08;;;;;;;32.98;16.97;;;;;;;7.04;91.03;97700.52;1742196;82;20983;-67
2022/11/06 07:17:35;;;;;;;43.13;20.57;;;;;;;7.18;90.96;97699.37;1742044;82;20968;-68
2022/11/06 07:20:03;;;;;;;36.75;21.85;;;;;;;7.34;91.12;97701.21;1742206;82;20980;-68
2022/11/06 07:22:30;;;;;;;30.65;17.85;;;;;;;7.45;90.42;97703.19;1742202;81;20916;-68
2022/11/06 07:24:57;;;;;;;33.18;20.08;;;;;;;7.49;89.61;97706.19;1742050;80;20996;-68
2022/11/06 07:27:23;;;;;;;30.48;18.98;;;;;;;7.53;89.67;97703.02;1742212;82;20976;-68
2022/11/06 07:29:50;;;;;;;32.17;19.37;;;;;;;7.56;89.34;97700.77;1764095;80;21246;-69
2022/11/06 07:32:16;;;;;;;32.20;18.62;;;;;;;7.58;89.40;97698.95;1765202;81;20990;-68
2022/11/06 07:34:43;;;;;;;30.57;19.20;;;;;;;7.63;89.56;97702.34;1765263;81;20955;-68
2022/11/06 07:37:09;;;;;;;37.63;21.55;;;;;;;7.71;89.67;97708.33;1764717;81;20967;-68
2022/11/06 07:39:36;;;;;;;36.30;20.85;;;;;;;7.79;89.37;97705.52;1765177;81;20974;-68
2022/11/06 07:42:03;;;;;;;35.45;20.50;;;;;;;7.82;89.03;97704.13;1765314;81;20967;-68
2022/11/06 07:44:31;;;;;;;35.98;20.37;;;;;;;7.86;88.86;97699.65;1764911;81;21504;-69
2022/11/06 07:46:57;;;;;;;32.30;19.80;;;;;;;7.93;89.07;97695.95;1765193;81;20967;-66
2022/11/06 07:49:24;;;;;;;36.48;20.60;;;;;;;8.01;89.09;97703.23;1765412;81;21404;-67
2022/11/06 07:51:51;;;;;;;30.55;19.42;;;;;;;8.09;88.94;97696.45;1765213;81;20971;-68
2022/11/06 07:54:17;;;;;;;30.88;19.45;;;;;;;8.20;89.08;97700.16;1765150;81;20944;-68
2022/11/06 07:56:44;;;;;;;39.15;20.60;;;;;;;8.25;88.54;97703.55;1765412;81;21003;-68
2022/11/06 07:59:10;;;;;;;32.55;19.82;;;;;;;8.26;88.63;97697.83;1761707;81;20996;-68
2022/11/06 08:01:37;;;;;;;33.40;19.70;;;;;;;8.40;88.47;97702.75;1762316;80;20999;-68
2022/11/06 08:04:03;;;;;;;38.88;20.43;;;;;;;8.46;88.03;97695.98;1765312;81;20975;-67
2022/11/06 08:06:30;;;;;;;31.17;19.25;;;;;;;8.52;87.23;97699.80;1765048;81;21373;-67
2022/11/06 08:08:57;;;;;;;34.10;20.15;;;;;;;8.60;87.97;97694.80;1765006;81;20955;-67
2022/11/06 08:11:23;;;;;;;39.63;22.50;;;;;;;8.70;87.74;97694.52;1764861;81;21079;-67
2022/11/06 08:13:50;;;;;;;34.85;20.57;;;;;;;8.81;87.80;97696.00;1765400;81;20963;-68
2022/11/06 08:16:16;;;;;;;33.70;20.32;;;;;;;8.93;87.88;97698.28;1765298;80;21573;-67
2022/11/06 08:18:43;;;;;;;35.25;21.45;;;;;;;9.09;87.69;97696.08;1765364;81;20975;-68
2022/11/06 08:21:10;;;;;;;30.90;18.75;;;;;;;9.26;87.46;97697.84;1765497;81;21522;-68
2022/11/06 08:23:36;;;;;;;31.20;18.80;;;;;;;9.40;86.93;97694.78;1765489;81;21014;-68
2022/11/06 08:26:05;;;;;;;31.55;20.12;;;;;;;9.57;87.35;97695.16;1765386;81;21432;-67
2022/11/06 08:28:32;;;;;;;36.20;18.87;;;;;;;9.75;87.13;97695.48;1765375;81;21428;-67
2022/11/06 08:31:05;;;;;;;34.78;20.43;;;;;;;9.95;86.72;97693.55;1755933;81;21354;-67
2022/11/06 08:33:32;;;;;;;33.15;18.52;;;;;;;10.14;86.60;97688.98;1765064;81;21006;-68
2022/11/06 08:36:05;;;;;;;32.60;20.40;;;;;;;10.33;86.48;97693.20;1765388;81;21006;-67
2022/11/06 08:38:31;;;;;;;34.85;20.60;;;;;;;10.52;85.84;97690.84;1765478;81;21456;-67
2022/11/06 08:41:00;;;;;;;33.45;20.75;;;;;;;10.71;85.12;97691.98;1747460;81;20934;-68
2022/11/06 08:43:26;;;;;;;38.20;20.80;;;;;;;10.87;85.36;97698.94;1762202;81;21463;-67
2022/11/06 08:45:53;;;;;;;38.42;20.40;;;;;;;11.03;84.22;97687.30;1765341;81;20932;-67
2022/11/06 08:48:20;;;;;;;39.90;22.52;;;;;;;11.20;83.28;97686.67;1765537;81;20955;-67
2022/11/06 08:50:46;;;;;;;38.65;22.45;;;;;;;11.39;83.04;97693.51;1765377;81;20951;-67
2022/11/06 08:53:13;;;;;;;38.53;23.22;;;;;;;11.52;81.92;97686.39;1765295;81;20994;-67
2022/11/06 08:55:39;;;;;;;39.45;24.18;;;;;;;11.64;80.40;97677.09;1765447;81;20944;-67
2022/11/06 08:58:06;;;;;;;36.93;22.93;;;;;;;11.76;81.73;97681.93;1765606;81;20928;-66
2022/11/06 09:00:34;;;;;;;37.40;24.15;;;;;;;11.92;82.04;97679.98;1765365;81;21014;-67
2022/11/06 09:03:08;;;;;;;38.95;24.20;;;;;;;12.08;81.99;97672.30;1765347;81;21412;-68
2022/11/06 09:05:35;;;;;;;;;;;;;;;12.22;80.46;97673.92;1767955;81;20963;-68
2022/11/06 09:08:02;;;;;;;39.33;23.45;;;;;;;12.37;81.67;97675.55;1737480;81;20126;-67
2022/11/06 09:10:28;;;;;;;38.85;24.10;;;;;;;12.49;80.50;97676.34;1765502;81;20939;-67
2022/11/06 09:12:59;;;;;;;43.80;23.92;;;;;;;12.67;80.53;97675.16;1765422;80;21015;-67
2022/11/06 09:15:27;;;;;;;39.18;23.87;;;;;;;12.81;79.02;97677.20;1765321;81;20943;-68
2022/11/06 09:17:54;;;;;;;40.88;24.35;;;;;;;12.97;79.95;97668.55;1765306;81;20960;-68
2022/11/06 09:20:23;;;;;;;36.23;23.47;;;;;;;13.16;78.91;97664.61;1765430;81;21025;-67
2022/11/06 09:22:51;;;;;;;43.25;26.90;;;;;;;13.32;75.83;97664.75;1765154;81;21006;-68
2022/11/06 09:25:18;;;;;;;43.52;25.65;;;;;;;13.45;77.00;97669.03;1765407;80;20958;-68
2022/11/06 09:27:51;;;;;;;36.53;24.57;;;;;;;13.59;77.02;97667.95;1765395;80;21412;-68
2022/11/06 09:30:21;;;;;;;37.88;24.32;;;;;;;13.73;76.47;97657.98;1744142;80;21035;-68
2022/11/06 09:32:52;;;;;;;42.80;24.75;;;;;;;13.86;76.18;97658.26;1742049;82;20933;-68
2022/11/06 09:35:21;;;;;;;41.40;24.85;;;;;;;13.99;74.00;97660.30;1741644;81;20987;-68
2022/11/06 09:37:48;;;;;;;36.25;23.57;;;;;;;14.11;75.05;97659.72;1742122;81;20980;-67
2022/11/06 09:40:41;;;;;;;36.65;23.85;;;;;;;14.21;74.83;97658.77;1742124;82;21033;-68
2022/11/06 09:43:45;;;;;;;37.42;24.60;;;;;;;14.32;74.91;97660.91;1741825;81;20968;-67
2022/11/06 09:46:18;;;;;;;40.17;24.75;;;;;;;14.45;73.77;97657.64;1742713;82;20975;-68
2022/11/06 09:49:01;;;;;;;43.75;26.45;;;;;;;14.58;74.52;97657.38;1742147;82;21441;-68
2022/11/06 09:51:48;;;;;;;40.70;24.60;;;;;;;14.66;73.91;97659.68;1742380;81;20948;-67
2022/11/06 09:54:25;;;;;;;36.10;25.00;;;;;;;14.74;74.27;97652.13;1736864;82;20961;-67
2022/11/06 09:56:57;;;;;;;38.98;23.95;;;;;;;14.81;72.02;97648.70;1741252;82;20995;-67
2022/11/06 09:59:25;;;;;;;34.50;22.17;;;;;;;14.87;72.92;97652.37;1740744;82;20937;-68
2022/11/06 10:01:55;;;;;;;30.77;21.25;;;;;;;14.96;72.29;97639.50;1742071;82;20984;-67
2022/11/06 10:04:43;;;;;;;32.17;21.27;;;;;;;15.01;72.43;97640.11;1742022;82;20968;-68
2022/11/06 10:07:30;;;;;;;35.73;21.65;;;;;;;15.07;72.26;97637.59;1700818;84;20963;-68
2022/11/06 10:09:59;;;;;;;31.82;19.82;;;;;;;15.10;71.96;97641.41;1724290;82;20979;-68
2022/11/06 10:12:49;;;;;;;35.25;20.90;;;;;;;15.09;67.84;97635.23;1742025;81;21338;-68
2022/11/06 10:15:27;;;;;;;32.73;20.20;;;;;;;15.14;70.16;97637.64;1742100;82;20972;-68
2022/11/06 10:18:33;;;;;;;32.33;20.25;;;;;;;15.18;71.02;97635.20;1742048;82;20964;-68
2022/11/06 10:21:23;;;;;;;29.67;20.68;;;;;;;15.21;71.14;97625.70;1742006;82;20945;-68
2022/11/06 10:24:01;;;;;;;44.40;27.65;;;;;;;15.29;70.59;97625.28;1742107;82;20932;-68
2022/11/06 10:26:41;;;;;;;30.20;19.48;;;;;;;15.41;70.96;97625.08;1740972;81;21410;-68
2022/11/06 10:29:46;;;;;;;27.85;18.55;;;;;;;15.72;70.01;97624.69;1740824;80;21004;-68
2022/11/06 10:32:42;;;;;;;;;;;;;;;16.40;70.23;97622.59;1729427;82;21015;-68
2022/11/06 10:35:29;;;;;;;25.55;17.85;;;;;;;17.34;68.33;97616.97;1742194;82;20095;-67
2022/11/06 10:38:03;;;;;;;29.07;17.45;;;;;;;18.28;65.08;97620.78;1741827;82;20976;-67
2022/11/06 10:40:32;;;;;;;25.25;16.70;;;;;;;19.15;64.33;97609.10;1742085;82;20999;-67
2022/11/06 10:43:33;;;;;;;24.72;16.87;;;;;;;19.85;62.06;97602.25;1742143;82;21386;-66
2022/11/06 10:46:29;;;;;;;23.27;15.93;;;;;;;20.42;57.95;97601.19;1741220;82;20976;-68
2022/11/06 10:49:01;;;;;;;22.93;16.20;;;;;;;21.22;59.95;97598.64;1742114;82;20964;-68
2022/11/06 10:51:54;;;;;;;20.77;14.93;;;;;;;22.08;56.23;97593.13;1741604;82;21430;-68
2022/11/06 10:54:41;;;;;;;23.27;14.70;;;;;;;22.33;49.07;97584.81;1741850;82;21011;-67
2022/11/06 10:57:37;;;;;;;20.20;14.53;;;;;;;22.94;50.73;97585.94;1742291;82;20972;-68
2022/11/06 11:00:07;;;;;;;18.73;12.88;;;;;;;23.45;51.49;97572.03;1696509;82;20976;-68
2022/11/06 11:02:42;;;;;;;20.60;13.32;;;;;;;24.06;50.15;97573.35;1742264;82;20944;-68
2022/11/06 11:05:15;;;;;;;17.73;12.78;;;;;;;24.61;50.34;97572.41;1742094;82;21004;-68
2022/11/06 11:07:45;;;;;;;19.15;12.28;;;;;;;25.10;43.95;97566.91;1742013;82;20970;-67
2022/11/06 11:10:34;;;;;;;16.12;12.07;;;;;;;25.39;47.15;97559.14;1730119;82;21006;-67
2022/11/06 11:13:04;;;;;;;20.30;13.45;;;;;;;25.91;43.30;97563.65;1717144;82;20974;-68
2022/11/06 11:15:41;;;;;;;17.37;12.53;;;;;;;26.26;43.81;97561.97;1741861;82;21019;-68
2022/11/06 11:18:19;;;;;;;18.48;13.38;;;;;;;26.48;42.72;97557.04;1742182;81;20960;-68
2022/11/06 11:20:51;;;;;;;16.52;12.63;;;;;;;26.62;41.45;97557.83;1742072;82;20937;-69
2022/11/06 11:23:23;;;;;;;18.53;13.20;;;;;;;26.61;42.79;97567.00;1742480;82;20940;-68
2022/11/06 11:25:57;;;;;;;19.57;11.88;;;;;;;26.81;42.65;97564.08;1742056;82;20968;-68
2022/11/06 11:28:36;;;;;;;18.10;12.93;;;;;;;26.81;38.44;97562.72;1742043;82;20956;-68
2022/11/06 11:31:14;;;;;;;18.15;13.40;;;;;;;26.89;38.36;97560.06;1741984;82;21024;-68
2022/11/06 11:33:51;;;;;;;17.50;13.15;;;;;;;26.89;39.92;97558.70;1741914;81;21007;-68
2022/11/06 11:36:18;;;;;;;18.57;13.70;;;;;;;27.52;38.39;97561.73;1741896;82;21426;-68
2022/11/06 11:38:44;;;;;;;18.07;13.58;;;;;;;27.79;37.98;97553.88;1742075;82;20916;-67
2022/11/06 11:41:21;;;;;;;16.17;12.20;;;;;;;27.76;38.25;97555.56;1742082;82;20980;-68
2022/11/06 11:44:13;;;;;;;17.37;12.30;;;;;;;27.79;36.12;97558.47;1742177;82;20960;-68
2022/11/06 11:46:50;;;;;;;17.17;12.68;;;;;;;27.52;36.56;97559.88;1742037;82;20937;-68
2022/11/06 11:49:27;;;;;;;24.67;15.35;;;;;;;27.46;37.13;97561.05;1741864;82;21349;-67
2022/11/06 11:51:56;;;;;;;20.23;14.53;;;;;;;26.97;36.76;97569.30;1739351;82;20976;-68
2022/11/06 11:54:26;;;;;;;23.50;14.95;;;;;;;26.92;36.80;97562.97;1741965;82;21007;-69
2022/11/06 11:57:09;;;;;;;18.98;14.05;;;;;;;26.92;36.11;97561.61;1741969;82;21424;-69
2022/11/06 11:59:42;;;;;;;;;;;;;;;26.52;36.55;97563.88;1724788;82;21429;-67
2022/11/06 12:02:32;;;;;;;20.08;13.90;;;;;;;26.15;35.02;97561.66;1742189;82;20079;-69
2022/11/06 12:05:09;;;;;;;20.23;13.30;;;;;;;25.36;37.35;97556.72;1733600;82;20960;-69